Time;durP1;ratioP1;P1;durP2;ratioP2;P2;SDS_P1;SDS_P2;PMS_P1;PMS_P2;Temp;Humidity;BMP_temperature;BMP_pressure;BME280_temperature;BME280_humidity;BME280_pressure;Samples;Min_cycle;Max_cycle;Signal;HPM_P1;HPM_P2
2022/05/05 00:00:52;;;;;;;5.33;4.87;;;;;;;14.54;77.46;99793.81;5086847;28;20203;-56
2022/05/05 00:03:18;;;;;;;5.63;5.13;;;;;;;14.52;77.63;99798.09;5070589;28;20204;-56
2022/05/05 00:05:45;;;;;;;6.03;5.50;;;;;;;14.53;78.13;99801.56;5086360;28;20677;-56
2022/05/05 00:08:12;;;;;;;6.77;5.47;;;;;;;14.58;78.54;99800.72;5090340;28;20206;-56
2022/05/05 00:16:09;;;;;;;6.27;5.20;;;;;;;14.46;78.95;99808.41;5079965;28;20230;-56
2022/05/05 00:18:36;;;;;;;5.53;5.03;;;;;;;14.49;78.93;99805.84;5089825;28;20690;-56
2022/05/05 00:21:03;;;;;;;5.93;5.43;;;;;;;14.41;78.63;99789.44;5089697;28;20191;-56
2022/05/05 00:23:30;;;;;;;5.27;4.77;;;;;;;14.49;78.84;99811.03;5090134;28;20189;-56
2022/05/05 00:25:57;;;;;;;5.60;5.10;;;;;;;14.51;78.38;99803.25;5089640;28;20244;-56
2022/05/05 00:28:24;;;;;;;9.10;5.43;;;;;;;14.49;78.78;99797.22;5089631;28;20204;-56
2022/05/05 00:30:50;;;;;;;5.50;4.80;;;;;;;14.47;78.88;99798.94;5089773;28;20191;-62
2022/05/05 00:33:19;;;;;;;5.63;4.80;;;;;;;14.47;78.47;99799.81;5089757;28;20214;-61
2022/05/05 00:35:45;;;;;;;5.40;4.57;;;;;;;14.47;78.87;99806.69;5090189;28;20183;-62
2022/05/05 00:38:12;;;;;;;5.70;5.20;;;;;;;14.47;78.79;99807.56;5090064;28;20197;-61
2022/05/05 00:40:42;;;;;;;5.90;5.40;;;;;;;14.44;79.05;99794.63;5090061;28;20189;-62
2022/05/05 00:43:11;;;;;;;5.13;4.63;;;;;;;14.40;79.08;99798.03;5089176;28;20195;-61
2022/05/05 00:45:38;;;;;;;6.18;5.57;;;;;;;14.43;79.60;99800.63;5087990;28;20455;-60
2022/05/05 00:48:07;;;;;;;5.93;5.43;;;;;;;14.38;78.67;99807.50;5088120;28;20620;-61
2022/05/05 00:50:37;;;;;;;5.57;5.07;;;;;;;14.42;79.09;99803.22;5070854;28;20195;-64
2022/05/05 00:53:05;;;;;;;6.40;5.80;;;;;;;14.38;79.73;99798.88;5070983;28;21037;-61
2022/05/05 00:55:34;;;;;;;8.17;5.47;;;;;;;14.33;79.97;99801.44;5070237;28;20198;-61
2022/05/05 00:58:01;;;;;;;7.40;5.23;;;;;;;14.31;80.04;99800.50;5070248;28;20632;-61
2022/05/05 01:00:29;;;;;;;8.23;5.63;;;;;;;14.22;80.23;99797.91;5071765;28;20628;-61
2022/05/05 01:02:56;;;;;;;5.97;5.37;;;;;;;14.21;80.20;99798.75;5074135;28;20253;-60
2022/05/05 01:05:23;;;;;;;5.87;5.30;;;;;;;14.24;79.99;99796.19;5074126;28;20202;-60
2022/05/05 01:07:51;;;;;;;6.33;5.43;;;;;;;14.20;80.16;99803.03;5074036;28;20191;-62
2022/05/05 01:10:18;;;;;;;6.60;5.90;;;;;;;14.21;79.80;99798.75;5073782;28;20196;-62
2022/05/05 01:12:45;;;;;;;6.60;5.93;;;;;;;14.22;79.94;99799.63;5073639;28;20230;-62
2022/05/05 01:15:13;;;;;;;6.10;5.50;;;;;;;14.16;80.39;99801.31;5074089;28;20203;-61
2022/05/05 01:17:40;;;;;;;5.27;4.77;;;;;;;14.12;79.85;99796.09;5073602;28;20307;-61
2022/05/05 01:20:12;;;;;;;7.37;5.50;;;;;;;14.09;79.58;99796.94;5074004;28;20200;-60
2022/05/05 01:22:40;;;;;;;5.67;5.17;;;;;;;14.10;80.06;99800.38;5073648;28;20663;-62
2022/05/05 01:30:36;;;;;;;5.47;4.80;;;;;;;13.99;79.41;99802.91;5073655;28;20297;-61
2022/05/05 01:33:11;;;;;;;6.50;4.93;;;;;;;13.79;78.74;99783.78;5073302;28;20215;-60
2022/05/05 01:35:38;;;;;;;4.33;4.03;;;;;;;13.92;78.65;99818.34;5073463;28;20260;-60
2022/05/05 01:38:07;;;;;;;5.20;4.70;;;;;;;13.85;78.53;99808.81;5073355;28;20192;-62
2022/05/05 01:40:35;;;;;;;5.50;5.00;;;;;;;13.91;79.05;99814.03;5072554;28;20436;-62
2022/05/05 01:43:02;;;;;;;4.60;4.20;;;;;;;13.90;79.14;99818.31;5073471;28;20254;-61
2022/05/05 01:45:29;;;;;;;4.67;4.27;;;;;;;13.89;79.65;99815.75;5073210;28;20194;-62
2022/05/05 01:47:56;;;;;;;4.13;3.83;;;;;;;13.83;78.86;99816.56;5072994;28;20195;-60
2022/05/05 01:50:24;;;;;;;4.93;4.43;;;;;;;13.76;78.85;99819.91;5073211;28;20639;-60
2022/05/05 01:52:51;;;;;;;6.23;4.90;;;;;;;13.76;79.04;99819.06;5073210;28;20213;-60
2022/05/05 01:55:19;;;;;;;5.00;3.87;;;;;;;13.70;79.34;99819.88;5073157;28;20191;-62
2022/05/05 01:57:46;;;;;;;4.80;4.40;;;;;;;13.58;79.73;99825.81;5073119;28;20195;-60
2022/05/05 02:00:14;;;;;;;5.18;4.68;;;;;;;13.47;80.70;99819.66;5072812;28;20434;-61
2022/05/05 02:02:41;;;;;;;5.10;4.50;;;;;;;13.38;80.86;99814.41;5072959;28;20734;-61
2022/05/05 02:05:09;;;;;;;4.30;4.00;;;;;;;13.35;81.28;99824.69;5072878;28;20198;-60
2022/05/05 02:07:36;;;;;;;5.20;4.70;;;;;;;13.30;81.04;99823.78;5073045;28;20199;-60
2022/05/05 02:10:04;;;;;;;4.97;4.57;;;;;;;13.30;81.52;99823.78;5073301;28;20192;-61
2022/05/05 02:12:33;;;;;;;5.97;4.63;;;;;;;13.29;81.45;99814.34;5071895;28;20295;-61
2022/05/05 02:15:00;;;;;;;7.67;5.47;;;;;;;13.26;81.38;99816.88;5072935;28;20677;-60
2022/05/05 02:17:26;;;;;;;5.57;5.07;;;;;;;13.22;81.72;99822.84;5072706;28;20235;-60
2022/05/05 02:19:53;;;;;;;7.93;4.83;;;;;;;13.22;81.60;99824.56;5072811;28;20195;-60
2022/05/05 02:22:20;;;;;;;5.53;5.03;;;;;;;13.24;81.60;99833.19;5073279;28;20624;-61
2022/05/05 02:24:47;;;;;;;5.07;4.67;;;;;;;13.19;81.42;99835.72;5072639;28;20207;-60
2022/05/05 02:27:14;;;;;;;6.27;5.30;;;;;;;13.21;82.00;99843.47;5072801;28;20908;-60
2022/05/05 02:29:42;;;;;;;5.17;4.77;;;;;;;13.17;82.15;99840.00;5072739;28;20195;-60
2022/05/05 02:32:09;;;;;;;8.17;5.30;;;;;;;13.17;82.15;99836.53;5072364;28;20227;-60
2022/05/05 02:34:36;;;;;;;5.80;5.30;;;;;;;13.20;82.13;99840.03;5072531;28;20274;-61
2022/05/05 02:39:48;;;;;;;5.50;5.00;;;;;;;13.14;81.64;99845.13;5072345;28;20196;-61
2022/05/05 02:42:15;;;;;;;6.00;5.40;;;;;;;13.05;81.73;99844.97;5072427;28;20189;-61
2022/05/05 02:44:43;;;;;;;6.47;5.00;;;;;;;13.01;81.82;99854.41;5072258;28;20598;-62
2022/05/05 02:47:10;;;;;;;6.57;5.83;;;;;;;12.99;81.85;99862.97;5072535;28;20912;-62
2022/05/05 02:49:37;;;;;;;6.67;5.70;;;;;;;12.95;82.40;99861.19;5072648;28;20215;-60
2022/05/05 02:52:05;;;;;;;6.07;5.47;;;;;;;12.91;82.56;99867.16;5072642;28;20197;-60
2022/05/05 02:54:51;;;;;;;6.20;5.53;;;;;;;12.84;82.53;99862.75;5072323;28;20725;-60
2022/05/05 02:57:20;;;;;;;7.97;4.53;;;;;;;12.66;82.56;99871.09;5072157;28;20952;-60
2022/05/05 02:59:48;;;;;;;6.23;5.63;;;;;;;12.54;82.98;99863.22;5072139;28;20199;-60
2022/05/05 03:02:15;;;;;;;5.87;5.37;;;;;;;12.48;83.14;99868.28;5071710;28;20192;-60
2022/05/05 03:04:42;;;;;;;5.53;5.13;;;;;;;12.47;84.09;99871.69;5071975;28;20277;-62
2022/05/05 03:07:09;;;;;;;6.50;5.80;;;;;;;12.33;84.05;99870.66;5071849;28;20249;-62
2022/05/05 03:09:36;;;;;;;6.50;5.70;;;;;;;12.48;84.49;99885.44;5071729;28;20191;-60
2022/05/05 03:12:03;;;;;;;6.67;5.60;;;;;;;12.29;84.49;99859.41;5071771;28;20226;-62
2022/05/05 03:14:30;;;;;;;5.73;5.10;;;;;;;12.42;84.01;99888.78;5071589;28;20231;-62
2022/05/05 03:16:58;;;;;;;7.55;6.30;;;;;;;12.40;83.80;99891.38;5070514;28;20452;-64
2022/05/05 03:19:26;;;;;;;6.13;5.63;;;;;;;12.47;83.70;99888.88;5071340;28;20626;-61
2022/05/05 03:21:53;;;;;;;5.97;5.47;;;;;;;12.53;83.69;99891.53;5071566;28;20196;-61
2022/05/05 03:24:20;;;;;;;6.40;5.80;;;;;;;12.57;84.18;99895.91;5071574;28;20196;-62
2022/05/05 03:26:47;;;;;;;6.80;5.90;;;;;;;12.59;83.85;99901.94;5071555;28;20204;-62
2022/05/05 03:29:13;;;;;;;7.77;6.33;;;;;;;12.55;83.63;99903.63;5071195;28;20739;-62
2022/05/05 03:31:40;;;;;;;5.60;5.10;;;;;;;12.40;83.63;99901.69;5071532;28;20196;-62
2022/05/05 03:34:09;;;;;;;6.23;5.70;;;;;;;12.24;84.39;99901.41;5071205;28;20219;-62
2022/05/05 03:36:37;;;;;;;7.27;6.07;;;;;;;12.27;84.77;99906.63;5071362;28;20776;-62
2022/05/05 03:39:04;;;;;;;9.57;6.73;;;;;;;12.28;84.54;99904.06;5071442;28;20199;-62
2022/05/05 03:41:31;;;;;;;9.23;6.00;;;;;;;12.29;84.91;99903.22;5071141;28;20200;-62
2022/05/05 03:43:58;;;;;;;6.93;6.30;;;;;;;12.33;84.88;99902.41;5071009;28;20208;-62
2022/05/05 03:46:25;;;;;;;6.90;6.20;;;;;;;12.44;84.86;99902.59;5071098;28;20301;-62
2022/05/05 03:48:53;;;;;;;7.27;6.57;;;;;;;12.53;84.93;99912.16;5073489;28;20245;-62
2022/05/05 03:51:21;;;;;;;6.10;5.47;;;;;;;12.55;84.22;99905.34;5071009;28;20200;-62
2022/05/05 03:53:48;;;;;;;8.10;5.63;;;;;;;12.61;83.33;99908.00;5071117;28;20693;-62
2022/05/05 03:56:15;;;;;;;5.90;5.33;;;;;;;12.68;82.08;99914.97;5070897;28;20658;-62
2022/05/05 03:58:42;;;;;;;5.97;5.37;;;;;;;12.69;82.06;99916.72;5070728;28;20257;-62
2022/05/05 04:01:08;;;;;;;6.63;5.50;;;;;;;12.69;82.32;99916.72;5070804;28;20207;-62
2022/05/05 04:03:41;;;;;;;8.17;6.10;;;;;;;12.70;82.08;99914.16;5070698;28;20188;-61
2022/05/05 04:06:09;;;;;;;6.40;5.80;;;;;;;12.77;81.37;99921.09;5070675;28;20295;-62
2022/05/05 04:08:38;;;;;;;6.40;5.80;;;;;;;12.78;80.82;99921.97;5070744;28;20299;-63
2022/05/05 04:11:06;;;;;;;7.27;6.53;;;;;;;12.75;81.11;99932.25;5071594;28;20624;-62
2022/05/05 04:13:33;;;;;;;9.25;6.25;;;;;;;12.86;81.29;99933.28;5090060;28;20524;-62
2022/05/05 04:16:00;;;;;;;8.20;5.87;;;;;;;12.97;80.51;99931.69;5090982;28;20313;-61
2022/05/05 04:18:26;;;;;;;5.63;5.00;;;;;;;12.89;80.07;99929.03;5091055;28;20201;-62
2022/05/05 04:20:53;;;;;;;6.13;5.37;;;;;;;12.92;80.00;99928.19;5090929;28;20199;-61
2022/05/05 04:23:20;;;;;;;5.63;5.03;;;;;;;12.91;80.27;99942.81;5090613;28;20198;-62
2022/05/05 04:25:49;;;;;;;7.63;5.93;;;;;;;12.85;80.01;99929.84;5090692;28;20203;-62
2022/05/05 04:28:17;;;;;;;7.77;5.20;;;;;;;12.92;79.71;99944.56;5090801;28;20202;-62
2022/05/05 04:30:44;;;;;;;7.13;5.97;;;;;;;12.97;79.65;99944.59;5090934;28;20203;-62
2022/05/05 04:33:13;;;;;;;6.90;6.20;;;;;;;13.09;79.36;99944.81;5088961;28;20467;-62
2022/05/05 04:35:40;;;;;;;6.57;5.90;;;;;;;13.21;79.07;99944.94;5094196;28;20297;-62
2022/05/05 04:38:07;;;;;;;6.80;6.20;;;;;;;13.27;78.91;99949.31;5096910;28;20202;-62
2022/05/05 04:40:34;;;;;;;9.07;6.10;;;;;;;13.32;78.91;99940.78;5097186;28;21005;-62
2022/05/05 04:43:02;;;;;;;8.03;6.00;;;;;;;13.33;78.72;99932.22;5096563;28;20198;-63
2022/05/05 04:45:29;;;;;;;11.00;6.77;;;;;;;13.30;78.46;99939.91;5095620;28;20687;-63
2022/05/05 04:47:56;;;;;;;6.57;5.70;;;;;;;13.36;78.75;99946.88;5092626;28;20194;-61
2022/05/05 04:50:23;;;;;;;7.30;6.00;;;;;;;13.38;78.13;99948.63;5096640;28;20209;-61
2022/05/05 04:52:50;;;;;;;7.07;6.23;;;;;;;13.45;78.73;99931.50;5096151;28;20260;-61
2022/05/05 04:55:18;;;;;;;7.67;6.93;;;;;;;13.49;78.67;99939.28;5096482;28;20194;-61
2022/05/05 04:57:45;;;;;;;8.93;6.03;;;;;;;13.58;78.22;99934.25;5093642;28;20252;-61
2022/05/05 05:00:14;;;;;;;9.80;7.10;;;;;;;13.70;78.29;99942.97;5096585;28;20206;-62
2022/05/05 05:02:41;;;;;;;8.00;6.37;;;;;;;13.80;78.05;99944.78;5096170;28;20281;-62
2022/05/05 05:05:10;;;;;;;11.07;6.57;;;;;;;13.81;78.11;99942.25;5096096;28;20200;-62
2022/05/05 05:07:37;;;;;;;7.53;6.60;;;;;;;13.83;78.08;99952.56;5096296;28;20209;-60
2022/05/05 05:10:04;;;;;;;10.17;6.70;;;;;;;13.93;78.26;99955.25;5096509;28;20202;-61
2022/05/05 05:12:31;;;;;;;7.43;6.67;;;;;;;13.89;77.91;99950.06;5096854;28;20198;-61
2022/05/05 05:14:58;;;;;;;7.83;6.53;;;;;;;13.98;77.85;99940.66;5096090;28;20235;-61
2022/05/05 05:17:27;;;;;;;12.93;7.43;;;;;;;14.05;77.87;99937.31;5096394;28;20233;-61
2022/05/05 05:19:54;;;;;;;8.07;7.37;;;;;;;14.04;77.46;99948.47;5096514;28;20288;-62
2022/05/05 05:22:22;;;;;;;9.63;7.40;;;;;;;14.15;77.63;99948.56;5096637;28;20194;-60
2022/05/05 05:24:48;;;;;;;9.30;7.40;;;;;;;14.11;77.55;99947.72;5096378;28;20653;-61
2022/05/05 05:27:15;;;;;;;8.27;7.57;;;;;;;14.19;78.00;99945.19;5096893;28;20194;-61
2022/05/05 05:29:42;;;;;;;10.77;9.03;;;;;;;14.28;77.68;99950.44;5095979;28;20451;-62
2022/05/05 05:32:09;;;;;;;10.60;8.50;;;;;;;14.48;77.51;99948.91;5096672;28;20197;-62
2022/05/05 05:34:37;;;;;;;9.50;8.60;;;;;;;14.72;76.93;99958.56;5096303;28;20218;-62
2022/05/05 05:37:05;;;;;;;10.33;9.33;;;;;;;14.82;76.09;99959.47;5096345;28;20195;-60
2022/05/05 05:39:32;;;;;;;9.63;8.73;;;;;;;14.97;74.97;99967.38;5096318;28;20201;-61
2022/05/05 05:41:58;;;;;;;14.17;9.63;;;;;;;15.09;74.75;99962.25;5095835;28;20287;-60
2022/05/05 05:44:25;;;;;;;8.60;7.80;;;;;;;15.17;73.65;99973.50;5096299;28;20187;-61
2022/05/05 05:46:52;;;;;;;13.80;9.27;;;;;;;15.24;72.96;99960.59;5094763;28;20206;-61
2022/05/05 05:49:19;;;;;;;10.57;9.55;;;;;;;15.35;72.99;99965.84;5092602;28;20442;-62
2022/05/05 05:51:47;;;;;;;9.03;7.27;;;;;;;15.46;72.17;99971.97;5092765;28;20250;-62
2022/05/05 05:54:14;;;;;;;13.87;8.20;;;;;;;15.44;72.04;99973.63;5092986;28;20231;-57
2022/05/05 05:56:42;;;;;;;9.00;7.83;;;;;;;15.49;71.75;99974.56;5092679;28;20206;-57
2022/05/05 05:59:09;;;;;;;8.63;7.87;;;;;;;15.51;71.87;99977.16;5092573;28;20191;-57
2022/05/05 06:04:19;;;;;;;8.37;7.20;;;;;;;15.51;71.14;99977.16;5092661;28;20194;-56
2022/05/05 06:06:47;;;;;;;8.20;7.50;;;;;;;15.50;71.58;99981.47;5092563;28;20240;-56
2022/05/05 06:09:15;;;;;;;9.43;6.57;;;;;;;15.52;71.34;99974.56;5092535;28;20195;-57
2022/05/05 06:11:42;;;;;;;8.07;6.97;;;;;;;15.59;70.90;99973.75;5092554;28;20281;-57
2022/05/05 06:14:09;;;;;;;8.30;6.23;;;;;;;15.64;70.48;99982.38;5092207;28;20221;-57
2022/05/05 06:16:36;;;;;;;7.20;6.60;;;;;;;15.65;70.72;99986.72;5091582;28;20240;-57
2022/05/05 06:19:03;;;;;;;7.80;6.93;;;;;;;15.37;71.05;99917.50;5092445;28;20210;-57
2022/05/05 06:21:30;;;;;;;8.00;7.07;;;;;;;15.86;71.54;99979.00;5092130;28;20199;-57
2022/05/05 06:23:58;;;;;;;8.07;7.03;;;;;;;15.85;70.76;99979.84;5091917;28;20700;-56
2022/05/05 06:26:27;;;;;;;7.63;6.73;;;;;;;15.85;70.07;99984.16;5091952;28;20199;-56
2022/05/05 06:28:55;;;;;;;11.93;7.43;;;;;;;15.83;70.80;99979.00;5092216;28;20257;-56
2022/05/05 06:31:22;;;;;;;7.13;6.43;;;;;;;15.82;69.79;99977.25;5091944;28;20327;-57
2022/05/05 06:33:49;;;;;;;7.67;6.93;;;;;;;15.92;70.59;99981.63;5091584;28;22130;-61
2022/05/05 06:36:16;;;;;;;8.50;7.67;;;;;;;16.04;70.81;99982.50;5092398;28;20227;-62
2022/05/05 06:38:43;;;;;;;8.13;7.40;;;;;;;16.07;70.57;99980.75;5092298;28;20256;-62
2022/05/05 06:41:12;;;;;;;7.50;6.83;;;;;;;16.15;70.35;99986.81;5092302;28;20203;-61
2022/05/05 06:43:39;;;;;;;7.70;7.00;;;;;;;16.22;69.99;99969.56;5091960;28;20187;-62
2022/05/05 06:46:06;;;;;;;7.25;6.60;;;;;;;16.32;69.22;99984.25;5091425;28;20432;-62
2022/05/05 06:48:32;;;;;;;8.20;6.83;;;;;;;16.40;69.63;99985.13;5092131;28;20195;-62
2022/05/05 06:50:59;;;;;;;7.97;7.27;;;;;;;16.52;68.02;99983.41;5091583;28;20201;-61
2022/05/05 06:53:26;;;;;;;7.90;7.13;;;;;;;16.60;68.32;99978.25;5091858;28;20198;-62
2022/05/05 06:55:57;;;;;;;8.07;6.43;;;;;;;16.72;68.11;99979.97;5091670;28;20196;-62
2022/05/05 06:58:26;;;;;;;9.10;6.83;;;;;;;16.87;67.23;99972.16;5090935;28;20197;-62
2022/05/05 07:03:37;;;;;;;7.00;6.27;;;;;;;17.04;65.68;99973.00;5090781;28;20182;-62
2022/05/05 07:06:02;;;;;;;6.67;6.07;;;;;;;17.13;65.46;99972.13;5090953;28;20660;-61
2022/05/05 07:10:52;;;;;;;6.27;5.77;;;;;;;17.11;64.52;99970.38;5091262;28;20187;-61
2022/05/05 07:11:16;;;;;;;8.43;6.70;;;;;;;17.25;65.18;99978.13;5090206;28;20194;-62
2022/05/05 07:13:45;;;;;;;8.33;6.37;;;;;;;17.34;64.96;99975.53;5091353;28;20298;-62
2022/05/05 07:16:12;;;;;;;6.53;5.93;;;;;;;17.41;65.12;99974.66;5091423;28;20229;-62
2022/05/05 07:18:39;;;;;;;6.33;5.73;;;;;;;17.57;64.34;99976.34;5092021;28;20202;-58
2022/05/05 07:21:06;;;;;;;7.57;5.63;;;;;;;17.64;63.11;99972.81;5081032;28;20714;-57
2022/05/05 07:23:33;;;;;;;8.60;4.70;;;;;;;17.73;61.75;99974.53;5070817;28;20202;-57
2022/05/05 07:25:59;;;;;;;6.37;5.77;;;;;;;17.79;61.94;99981.44;5071110;28;20191;-58
2022/05/05 07:28:26;;;;;;;6.13;5.60;;;;;;;17.87;62.29;99975.31;5082528;28;20206;-57
2022/05/05 07:30:54;;;;;;;6.00;5.37;;;;;;;17.97;60.35;99984.78;5090706;28;20198;-57
2022/05/05 07:33:22;;;;;;;7.67;5.40;;;;;;;18.09;60.43;99973.44;5088688;28;20198;-57
2022/05/05 07:35:49;;;;;;;6.73;5.40;;;;;;;18.16;60.79;99976.00;5099181;28;20225;-56
2022/05/05 07:38:16;;;;;;;6.00;5.50;;;;;;;18.24;61.22;99979.41;5090741;28;20304;-57
2022/05/05 07:40:43;;;;;;;7.37;5.07;;;;;;;18.33;60.33;99978.47;5090401;28;20198;-56
2022/05/05 07:43:10;;;;;;;5.27;4.87;;;;;;;18.40;60.04;99981.91;5090548;28;20255;-56
2022/05/05 07:45:37;;;;;;;6.30;5.80;;;;;;;18.49;59.92;99977.53;5090651;28;20202;-56
2022/05/05 07:48:06;;;;;;;6.47;5.60;;;;;;;18.26;59.23;99985.47;5090305;28;20195;-56
2022/05/05 07:50:33;;;;;;;5.70;5.20;;;;;;;18.33;59.88;99988.00;5090457;28;20228;-57
2022/05/05 07:52:59;;;;;;;9.03;5.63;;;;;;;18.39;60.26;99980.19;5090748;28;20202;-62
2022/05/05 07:55:26;;;;;;;6.97;5.80;;;;;;;18.55;59.47;99979.22;5090200;28;20582;-62
2022/05/05 07:57:53;;;;;;;8.47;4.83;;;;;;;18.60;58.55;99985.22;5090417;28;20205;-60
2022/05/05 08:00:21;;;;;;;5.80;5.13;;;;;;;18.74;58.62;99984.25;5090160;28;20195;-56
2022/05/05 08:02:48;;;;;;;11.13;5.90;;;;;;;18.77;57.81;99978.16;5090196;28;20287;-57
2022/05/05 08:05:17;;;;;;;8.43;6.20;;;;;;;18.61;58.57;99981.75;5090263;28;20256;-56
2022/05/05 08:07:47;;;;;;;8.63;5.63;;;;;;;18.63;58.10;99983.47;5098120;28;20201;-56
2022/05/05 08:10:14;;;;;;;7.57;5.27;;;;;;;18.69;57.84;99982.56;5089036;28;21088;-57
2022/05/05 08:12:41;;;;;;;7.30;5.30;;;;;;;18.86;57.89;99978.06;5090148;28;20224;-57
2022/05/05 08:15:10;;;;;;;6.43;4.87;;;;;;;19.05;56.71;99983.97;5090282;28;20218;-56
2022/05/05 08:17:37;;;;;;;7.73;4.80;;;;;;;19.13;56.42;99987.34;5089533;28;20656;-56
2022/05/05 08:20:05;;;;;;;7.20;4.73;;;;;;;19.24;55.26;99988.97;5089409;28;20201;-58
2022/05/05 08:22:33;;;;;;;4.93;4.40;;;;;;;19.24;53.79;99982.88;5089762;28;20204;-56
2022/05/05 08:30:29;;;;;;;4.57;4.17;;;;;;;19.25;53.52;99985.50;5088911;28;20255;-56
2022/05/05 08:32:57;;;;;;;4.37;3.83;;;;;;;19.40;53.39;99993.16;5089095;28;20193;-56
2022/05/05 08:35:24;;;;;;;5.10;4.60;;;;;;;19.51;53.02;99982.59;5100821;28;20724;-57
2022/05/05 08:37:52;;;;;;;5.13;4.70;;;;;;;19.61;52.94;99983.34;5109729;28;20221;-56
2022/05/05 08:40:23;;;;;;;10.93;4.70;;;;;;;19.72;52.99;99979.72;5110374;28;20202;-56
2022/05/05 08:42:49;;;;;;;6.40;4.57;;;;;;;19.81;53.51;99983.94;5098679;28;20661;-60
2022/05/05 08:45:16;;;;;;;7.13;4.20;;;;;;;19.72;52.67;99974.50;5093802;28;20201;-62
2022/05/05 08:47:46;;;;;;;4.97;4.57;;;;;;;19.67;53.11;99981.50;5103538;28;20218;-60
2022/05/05 08:50:13;;;;;;;6.80;4.90;;;;;;;19.79;52.59;99983.09;5089940;28;20207;-60
2022/05/05 08:52:45;;;;;;;5.00;4.50;;;;;;;19.86;52.43;99976.94;5097647;28;20229;-62
2022/05/05 08:55:16;;;;;;;4.67;4.27;;;;;;;19.92;51.97;99979.44;5084613;28;20211;-62
2022/05/05 08:57:43;;;;;;;5.27;4.23;;;;;;;20.11;51.30;99974.84;5089672;28;20191;-62
2022/05/05 09:00:13;;;;;;;4.70;4.30;;;;;;;20.22;50.82;99976.41;5089782;28;20206;-62
2022/05/05 09:02:40;;;;;;;9.03;3.73;;;;;;;20.18;47.02;99960.81;5089782;28;20282;-61
2022/05/05 09:05:08;;;;;;;4.73;4.07;;;;;;;20.48;47.93;99976.91;5089661;28;20202;-62
2022/05/05 09:07:48;;;;;;;6.03;4.17;;;;;;;20.66;47.58;99973.09;5089760;28;20692;-61
2022/05/05 09:10:18;;;;;;;4.67;4.27;;;;;;;20.80;47.96;99967.66;5089697;28;20226;-62
2022/05/05 09:12:58;;;;;;;5.40;4.20;;;;;;;20.83;45.31;99970.22;5089530;28;20202;-63
2022/05/05 09:15:31;;;;;;;4.80;3.63;;;;;;;20.81;44.87;99964.16;5089548;28;20272;-62
2022/05/05 09:18:12;;;;;;;6.60;3.93;;;;;;;20.79;45.71;99972.03;5089194;28;20227;-62
2022/05/05 09:20:39;;;;;;;8.77;4.37;;;;;;;20.76;46.33;99964.25;5068963;28;20257;-56
2022/05/05 09:23:06;;;;;;;4.07;3.67;;;;;;;20.83;45.14;99968.47;5072735;28;20199;-57
2022/05/05 09:25:48;;;;;;;4.70;3.77;;;;;;;20.97;45.18;99968.22;5072820;28;20203;-57
2022/05/05 09:28:18;;;;;;;5.97;4.00;;;;;;;21.02;44.65;99968.97;5072426;28;20666;-57
2022/05/05 09:30:49;;;;;;;4.63;3.80;;;;;;;21.02;44.21;99975.06;5072521;28;20286;-57
2022/05/05 09:33:17;;;;;;;4.67;4.00;;;;;;;20.98;43.89;99967.34;5074101;28;20302;-57
2022/05/05 09:35:45;;;;;;;4.63;4.23;;;;;;;21.12;44.41;99965.38;5089857;28;20242;-57
2022/05/05 09:38:12;;;;;;;5.20;3.77;;;;;;;21.32;44.10;99971.03;5091355;28;20442;-61
2022/05/05 09:40:39;;;;;;;10.50;3.87;;;;;;;21.45;43.64;99956.81;5092480;28;20215;-62
2022/05/05 09:43:11;;;;;;;3.87;3.50;;;;;;;21.58;43.19;99955.72;5092747;28;20213;-62
2022/05/05 09:45:38;;;;;;;5.03;3.70;;;;;;;21.69;41.58;99961.56;5092616;28;20195;-62
2022/05/05 09:48:06;;;;;;;6.93;3.80;;;;;;;21.75;41.21;99958.81;5084141;28;20199;-62
2022/05/05 09:50:36;;;;;;;3.60;3.30;;;;;;;21.85;41.96;99956.84;5092370;28;20187;-63
2022/05/05 09:58:36;;;;;;;4.63;4.23;;;;;;;21.99;40.99;99946.97;5077022;28;20201;-62
2022/05/05 10:01:06;;;;;;;7.10;5.17;;;;;;;22.14;40.88;99944.00;5092657;28;20202;-61
2022/05/05 10:06:31;;;;;;;5.27;4.07;;;;;;;21.86;41.87;99935.03;5091681;28;20194;-62
2022/05/05 10:09:02;;;;;;;8.17;4.30;;;;;;;21.87;40.63;99936.78;5092099;28;20205;-62
2022/05/05 10:11:31;;;;;;;4.50;4.20;;;;;;;21.82;40.91;99936.00;5091699;28;20652;-62
2022/05/05 10:14:00;;;;;;;4.50;4.10;;;;;;;21.85;40.84;99935.94;5092070;28;20205;-62
2022/05/05 10:16:27;;;;;;;4.90;4.03;;;;;;;21.88;40.16;99940.25;5091079;28;20223;-61
2022/05/05 10:18:54;;;;;;;4.30;3.63;;;;;;;21.82;40.68;99922.03;5092337;28;20722;-62
2022/05/05 10:21:32;;;;;;;6.23;4.13;;;;;;;21.83;41.32;99921.16;5090404;28;20195;-62
2022/05/05 10:24:11;;;;;;;5.23;4.43;;;;;;;22.10;41.13;99923.19;5074357;28;20199;-61
2022/05/05 10:26:39;;;;;;;5.03;3.97;;;;;;;22.21;39.81;99914.19;5089626;28;20186;-62
2022/05/05 10:29:39;;;;;;;5.27;4.57;;;;;;;22.47;41.07;99915.28;5089734;28;20944;-62
2022/05/05 10:32:09;;;;;;;4.03;3.72;;;;;;;22.70;38.33;99923.44;5090501;28;20435;-62
2022/05/05 10:34:37;;;;;;;7.03;4.00;;;;;;;22.89;38.23;99920.28;5090393;28;20203;-62
2022/05/05 10:37:06;;;;;;;4.17;3.77;;;;;;;22.95;36.75;99918.41;5091304;28;20201;-62
2022/05/05 10:39:47;;;;;;;4.23;3.83;;;;;;;23.02;37.22;99912.13;5091706;28;20198;-62
2022/05/05 10:42:16;;;;;;;7.10;4.17;;;;;;;22.98;37.67;99915.69;5091707;28;20209;-62
2022/05/05 10:45:18;;;;;;;10.07;6.23;;;;;;;23.10;37.82;99913.59;5091656;28;20199;-63
2022/05/05 10:48:15;;;;;;;4.53;4.13;;;;;;;23.13;39.87;99912.69;5026849;28;20204;-61
2022/05/05 10:50:49;;;;;;;6.00;5.40;;;;;;;23.28;40.29;99912.22;5028655;28;20193;-62
2022/05/05 10:53:29;;;;;;;9.10;7.87;;;;;;;23.19;38.56;99891.50;5066778;28;20275;-60
2022/05/05 10:55:57;;;;;;;6.60;5.15;;;;;;;23.39;38.15;99912.81;5090390;28;20788;-62
2022/05/05 10:59:03;;;;;;;4.53;4.13;;;;;;;23.35;38.40;99903.25;5089546;28;20199;-62
2022/05/05 11:01:52;;;;;;;4.57;3.90;;;;;;;23.26;39.29;99911.41;5088824;28;20228;-62
2022/05/05 11:04:29;;;;;;;4.13;3.83;;;;;;;23.29;39.16;99914.78;5090042;28;20191;-62
2022/05/05 11:07:25;;;;;;;6.57;5.70;;;;;;;23.38;39.14;99922.44;5089459;28;20581;-61
2022/05/05 11:09:52;;;;;;;7.87;6.70;;;;;;;23.65;38.44;99919.91;5088612;28;20290;-62
2022/05/05 11:12:19;;;;;;;4.63;4.23;;;;;;;23.26;37.33;99925.41;5090246;28;20688;-62
2022/05/05 11:23:26;;;;;;;7.83;4.73;;;;;;;24.42;36.24;99915.69;5088020;28;20247;-62
2022/05/05 11:25:54;;;;;;;6.23;3.83;;;;;;;24.37;34.88;99919.38;5090628;28;20555;-63
2022/05/05 11:28:22;;;;;;;6.17;3.53;;;;;;;24.02;35.28;99923.13;5090692;28;20207;-61
2022/05/05 11:30:49;;;;;;;7.57;3.83;;;;;;;23.81;36.31;99923.78;5090436;28;20199;-63
2022/05/05 11:33:20;;;;;;;4.27;3.87;;;;;;;23.67;36.18;99931.22;5090462;28;20198;-63
2022/05/05 11:36:00;;;;;;;4.33;3.97;;;;;;;23.43;36.23;99917.06;5090445;28;20263;-62
2022/05/05 11:38:28;;;;;;;4.43;4.03;;;;;;;23.69;35.66;99932.03;5090808;28;20237;-62
2022/05/05 11:41:06;;;;;;;4.47;3.73;;;;;;;23.58;36.17;99931.47;5091214;28;20203;-63
2022/05/05 11:46:20;;;;;;;4.10;3.73;;;;;;;23.43;35.21;99940.69;5090720;28;20632;-62
2022/05/05 11:48:55;;;;;;;6.23;3.50;;;;;;;23.59;35.09;99923.59;5086065;28;20200;-62
2022/05/05 11:51:27;;;;;;;3.90;3.60;;;;;;;23.88;34.08;99936.66;5070210;28;20441;-62
2022/05/05 11:54:05;;;;;;;8.60;4.20;;;;;;;24.51;34.09;99932.91;5076046;28;20943;-63
2022/05/05 11:56:33;;;;;;;4.37;3.97;;;;;;;25.08;33.19;99930.94;5089898;28;20608;-63
2022/05/05 12:02:05;;;;;;;5.30;4.80;;;;;;;24.78;33.03;99929.34;5085790;28;20230;-63
2022/05/05 12:04:36;;;;;;;4.47;4.07;;;;;;;24.88;33.21;99912.41;5080763;28;20242;-61
2022/05/05 12:07:03;;;;;;;4.07;3.70;;;;;;;24.90;32.30;99917.59;5090467;28;20223;-63
2022/05/05 12:09:30;;;;;;;4.33;3.90;;;;;;;24.83;33.08;99919.56;5090293;28;20665;-62
2022/05/05 12:11:57;;;;;;;4.63;3.60;;;;;;;24.30;32.51;99913.47;5090407;28;20420;-61
2022/05/05 12:14:24;;;;;;;4.30;3.90;;;;;;;24.33;33.72;99910.75;5090222;28;20206;-62
2022/05/05 12:16:52;;;;;;;3.87;3.53;;;;;;;24.03;34.18;99920.44;5083481;28;20231;-57
2022/05/05 12:19:21;;;;;;;3.87;3.50;;;;;;;23.91;35.04;99920.84;5070608;28;20282;-57
2022/05/05 12:21:54;;;;;;;6.60;6.00;;;;;;;23.77;35.60;99920.41;5083818;28;20296;-57
2022/05/05 12:24:23;;;;;;;5.17;3.67;;;;;;;23.43;35.51;99911.81;5086991;28;20199;-57
2022/05/05 12:26:51;;;;;;;6.53;3.83;;;;;;;23.48;36.07;99912.53;5081586;28;20254;-57
2022/05/05 12:29:20;;;;;;;4.83;4.40;;;;;;;23.27;36.15;99913.13;5086427;28;20221;-63